sensor_id;sensor_type;location;lat;lon;timestamp;P1;durP1;ratioP1;P2;durP2;ratioP2
47669;SDS011;33408;52.062;11.722;2023-04-15T00:01:57;9.52;;;6.32;;
47669;SDS011;33408;52.062;11.722;2023-04-15T00:04:24;9.90;;;6.22;;
47669;SDS011;33408;52.062;11.722;2023-04-15T00:06:52;9.27;;;4.97;;
47669;SDS011;33408;52.062;11.722;2023-04-15T00:09:19;8.18;;;5.72;;
47669;SDS011;33408;52.062;11.722;2023-04-15T00:11:45;11.85;;;6.95;;
47669;SDS011;33408;52.062;11.722;2023-04-15T00:14:12;9.60;;;6.45;;
47669;SDS011;33408;52.062;11.722;2023-04-15T00:16:39;10.63;;;6.43;;
47669;SDS011;33408;52.062;11.722;2023-04-15T00:19:06;11.07;;;6.40;;
47669;SDS011;33408;52.062;11.722;2023-04-15T00:21:32;10.05;;;6.45;;
47669;SDS011;33408;52.062;11.722;2023-04-15T00:24:01;9.00;;;6.43;;
47669;SDS011;33408;52.062;11.722;2023-04-15T00:26:27;9.45;;;6.78;;
47669;SDS011;33408;52.062;11.722;2023-04-15T00:28:54;9.82;;;7.40;;
47669;SDS011;33408;52.062;11.722;2023-04-15T00:31:20;10.00;;;7.28;;
47669;SDS011;33408;52.062;11.722;2023-04-15T00:33:47;10.75;;;7.65;;
47669;SDS011;33408;52.062;11.722;2023-04-15T00:36:14;8.82;;;6.53;;
47669;SDS011;33408;52.062;11.722;2023-04-15T00:38:40;9.52;;;6.80;;
47669;SDS011;33408;52.062;11.722;2023-04-15T00:41:08;10.40;;;6.78;;
47669;SDS011;33408;52.062;11.722;2023-04-15T00:43:36;10.48;;;7.65;;
47669;SDS011;33408;52.062;11.722;2023-04-15T00:46:03;9.07;;;7.20;;
47669;SDS011;33408;52.062;11.722;2023-04-15T00:48:30;9.90;;;7.28;;
47669;SDS011;33408;52.062;11.722;2023-04-15T00:50:57;9.70;;;7.40;;
47669;SDS011;33408;52.062;11.722;2023-04-15T00:53:23;10.23;;;7.85;;
47669;SDS011;33408;52.062;11.722;2023-04-15T00:55:50;9.52;;;7.07;;
47669;SDS011;33408;52.062;11.722;2023-04-15T00:58:18;10.55;;;8.25;;
47669;SDS011;33408;52.062;11.722;2023-04-15T01:00:44;10.55;;;8.32;;
47669;SDS011;33408;52.062;11.722;2023-04-15T01:03:11;11.52;;;7.75;;
47669;SDS011;33408;52.062;11.722;2023-04-15T01:05:39;11.48;;;7.40;;
47669;SDS011;33408;52.062;11.722;2023-04-15T01:08:06;10.50;;;8.02;;
47669;SDS011;33408;52.062;11.722;2023-04-15T01:10:33;12.55;;;8.63;;
47669;SDS011;33408;52.062;11.722;2023-04-15T01:13:00;11.90;;;8.73;;
47669;SDS011;33408;52.062;11.722;2023-04-15T01:15:29;10.95;;;7.90;;
47669;SDS011;33408;52.062;11.722;2023-04-15T01:17:56;10.43;;;7.47;;
47669;SDS011;33408;52.062;11.722;2023-04-15T01:20:23;10.20;;;7.85;;
47669;SDS011;33408;52.062;11.722;2023-04-15T01:22:51;10.85;;;7.40;;
47669;SDS011;33408;52.062;11.722;2023-04-15T01:25:26;11.00;;;8.15;;
47669;SDS011;33408;52.062;11.722;2023-04-15T01:27:57;11.30;;;7.38;;
47669;SDS011;33408;52.062;11.722;2023-04-15T01:30:23;10.07;;;7.35;;
47669;SDS011;33408;52.062;11.722;2023-04-15T01:32:51;10.15;;;6.88;;
47669;SDS011;33408;52.062;11.722;2023-04-15T01:35:17;10.20;;;7.40;;
47669;SDS011;33408;52.062;11.722;2023-04-15T01:37:45;10.32;;;7.35;;
47669;SDS011;33408;52.062;11.722;2023-04-15T01:40:12;9.95;;;6.53;;
47669;SDS011;33408;52.062;11.722;2023-04-15T01:42:40;9.55;;;6.10;;
47669;SDS011;33408;52.062;11.722;2023-04-15T01:45:07;9.63;;;6.93;;
47669;SDS011;33408;52.062;11.722;2023-04-15T01:47:34;10.25;;;7.93;;
47669;SDS011;33408;52.062;11.722;2023-04-15T01:50:01;10.80;;;7.68;;
47669;SDS011;33408;52.062;11.722;2023-04-15T01:52:28;9.48;;;6.75;;
47669;SDS011;33408;52.062;11.722;2023-04-15T01:54:55;9.65;;;6.97;;
47669;SDS011;33408;52.062;11.722;2023-04-15T01:57:21;9.30;;;6.90;;
47669;SDS011;33408;52.062;11.722;2023-04-15T01:59:49;9.35;;;6.43;;
47669;SDS011;33408;52.062;11.722;2023-04-15T02:02:16;10.40;;;6.45;;
47669;SDS011;33408;52.062;11.722;2023-04-15T02:04:42;10.68;;;6.60;;
47669;SDS011;33408;52.062;11.722;2023-04-15T02:07:09;10.70;;;6.75;;
47669;SDS011;33408;52.062;11.722;2023-04-15T02:09:36;9.82;;;6.75;;
47669;SDS011;33408;52.062;11.722;2023-04-15T02:12:02;8.55;;;5.82;;
47669;SDS011;33408;52.062;11.722;2023-04-15T02:14:29;9.10;;;6.25;;
47669;SDS011;33408;52.062;11.722;2023-04-15T02:16:58;8.85;;;6.15;;
47669;SDS011;33408;52.062;11.722;2023-04-15T02:19:31;9.32;;;6.50;;
47669;SDS011;33408;52.062;11.722;2023-04-15T02:21:57;9.95;;;5.97;;
47669;SDS011;33408;52.062;11.722;2023-04-15T02:24:26;10.35;;;6.13;;
47669;SDS011;33408;52.062;11.722;2023-04-15T02:26:53;9.90;;;6.75;;
47669;SDS011;33408;52.062;11.722;2023-04-15T02:29:20;9.40;;;6.43;;
47669;SDS011;33408;52.062;11.722;2023-04-15T02:31:47;11.55;;;6.97;;
47669;SDS011;33408;52.062;11.722;2023-04-15T02:34:14;9.85;;;6.88;;
47669;SDS011;33408;52.062;11.722;2023-04-15T02:36:41;9.80;;;7.03;;
47669;SDS011;33408;52.062;11.722;2023-04-15T02:39:08;11.07;;;6.90;;
47669;SDS011;33408;52.062;11.722;2023-04-15T02:41:35;10.85;;;7.43;;
47669;SDS011;33408;52.062;11.722;2023-04-15T02:44:01;10.18;;;7.68;;
47669;SDS011;33408;52.062;11.722;2023-04-15T02:46:28;11.40;;;8.00;;
47669;SDS011;33408;52.062;11.722;2023-04-15T02:48:54;11.68;;;8.45;;
47669;SDS011;33408;52.062;11.722;2023-04-15T02:51:24;12.15;;;8.55;;
47669;SDS011;33408;52.062;11.722;2023-04-15T02:53:51;11.75;;;8.40;;
47669;SDS011;33408;52.062;11.722;2023-04-15T02:56:18;12.63;;;9.20;;
47669;SDS011;33408;52.062;11.722;2023-04-15T02:58:44;17.95;;;8.57;;
47669;SDS011;33408;52.062;11.722;2023-04-15T03:01:14;11.30;;;8.32;;
47669;SDS011;33408;52.062;11.722;2023-04-15T03:03:41;12.25;;;8.85;;
47669;SDS011;33408;52.062;11.722;2023-04-15T03:06:07;11.63;;;8.93;;
47669;SDS011;33408;52.062;11.722;2023-04-15T03:08:35;12.85;;;9.48;;
47669;SDS011;33408;52.062;11.722;2023-04-15T03:11:02;12.23;;;8.77;;
47669;SDS011;33408;52.062;11.722;2023-04-15T03:13:29;11.85;;;8.50;;
47669;SDS011;33408;52.062;11.722;2023-04-15T03:15:56;11.57;;;8.65;;
47669;SDS011;33408;52.062;11.722;2023-04-15T03:18:22;14.43;;;9.50;;
47669;SDS011;33408;52.062;11.722;2023-04-15T03:20:49;12.77;;;9.35;;
47669;SDS011;33408;52.062;11.722;2023-04-15T03:23:15;12.30;;;9.55;;
47669;SDS011;33408;52.062;11.722;2023-04-15T03:25:44;15.35;;;9.93;;
47669;SDS011;33408;52.062;11.722;2023-04-15T03:28:11;12.35;;;9.02;;
47669;SDS011;33408;52.062;11.722;2023-04-15T03:30:37;12.52;;;9.45;;
47669;SDS011;33408;52.062;11.722;2023-04-15T03:33:04;12.40;;;9.05;;
47669;SDS011;33408;52.062;11.722;2023-04-15T03:35:31;11.52;;;8.88;;
47669;SDS011;33408;52.062;11.722;2023-04-15T03:37:57;10.98;;;8.13;;
47669;SDS011;33408;52.062;11.722;2023-04-15T03:40:24;11.82;;;9.00;;
47669;SDS011;33408;52.062;11.722;2023-04-15T03:42:52;12.65;;;8.90;;
47669;SDS011;33408;52.062;11.722;2023-04-15T03:45:19;11.35;;;9.15;;
47669;SDS011;33408;52.062;11.722;2023-04-15T03:47:45;10.82;;;8.20;;
47669;SDS011;33408;52.062;11.722;2023-04-15T03:50:13;10.93;;;8.40;;
47669;SDS011;33408;52.062;11.722;2023-04-15T03:52:40;10.75;;;7.97;;
47669;SDS011;33408;52.062;11.722;2023-04-15T03:55:07;11.45;;;8.45;;
47669;SDS011;33408;52.062;11.722;2023-04-15T03:57:34;11.20;;;8.43;;
47669;SDS011;33408;52.062;11.722;2023-04-15T04:00:05;13.50;;;7.38;;
47669;SDS011;33408;52.062;11.722;2023-04-15T04:02:33;10.68;;;7.55;;
47669;SDS011;33408;52.062;11.722;2023-04-15T04:05:00;10.15;;;7.20;;
47669;SDS011;33408;52.062;11.722;2023-04-15T04:07:26;9.85;;;6.57;;
47669;SDS011;33408;52.062;11.722;2023-04-15T04:09:53;9.40;;;6.22;;
47669;SDS011;33408;52.062;11.722;2023-04-15T04:12:20;10.13;;;6.63;;
47669;SDS011;33408;52.062;11.722;2023-04-15T04:14:47;10.52;;;7.05;;
47669;SDS011;33408;52.062;11.722;2023-04-15T04:17:15;9.13;;;6.13;;
47669;SDS011;33408;52.062;11.722;2023-04-15T04:19:41;9.85;;;6.43;;
47669;SDS011;33408;52.062;11.722;2023-04-15T04:22:08;8.60;;;5.80;;
47669;SDS011;33408;52.062;11.722;2023-04-15T04:24:34;8.52;;;5.85;;
47669;SDS011;33408;52.062;11.722;2023-04-15T04:27:01;10.68;;;6.78;;
47669;SDS011;33408;52.062;11.722;2023-04-15T04:29:27;8.65;;;5.88;;
47669;SDS011;33408;52.062;11.722;2023-04-15T04:31:54;9.30;;;6.05;;
47669;SDS011;33408;52.062;11.722;2023-04-15T04:34:22;9.25;;;6.15;;
47669;SDS011;33408;52.062;11.722;2023-04-15T04:36:48;9.35;;;6.40;;
47669;SDS011;33408;52.062;11.722;2023-04-15T04:39:15;9.15;;;5.72;;
47669;SDS011;33408;52.062;11.722;2023-04-15T04:41:42;11.10;;;6.53;;
47669;SDS011;33408;52.062;11.722;2023-04-15T04:44:09;10.20;;;6.90;;
47669;SDS011;33408;52.062;11.722;2023-04-15T04:46:36;9.32;;;6.38;;
47669;SDS011;33408;52.062;11.722;2023-04-15T04:49:03;10.32;;;6.55;;
47669;SDS011;33408;52.062;11.722;2023-04-15T04:51:30;10.00;;;6.88;;
47669;SDS011;33408;52.062;11.722;2023-04-15T04:53:57;9.27;;;5.95;;
47669;SDS011;33408;52.062;11.722;2023-04-15T04:56:24;9.85;;;6.47;;
47669;SDS011;33408;52.062;11.722;2023-04-15T04:58:51;9.95;;;6.47;;
47669;SDS011;33408;52.062;11.722;2023-04-15T05:01:17;9.77;;;6.40;;
47669;SDS011;33408;52.062;11.722;2023-04-15T05:03:44;10.90;;;7.15;;
47669;SDS011;33408;52.062;11.722;2023-04-15T05:06:11;9.43;;;6.43;;
47669;SDS011;33408;52.062;11.722;2023-04-15T05:08:39;11.40;;;7.00;;
47669;SDS011;33408;52.062;11.722;2023-04-15T05:11:06;10.85;;;6.82;;
47669;SDS011;33408;52.062;11.722;2023-04-15T05:13:33;12.35;;;9.55;;
47669;SDS011;33408;52.062;11.722;2023-04-15T05:16:02;11.85;;;8.70;;
47669;SDS011;33408;52.062;11.722;2023-04-15T05:18:29;9.73;;;6.63;;
47669;SDS011;33408;52.062;11.722;2023-04-15T05:20:56;12.75;;;7.05;;
47669;SDS011;33408;52.062;11.722;2023-04-15T05:23:24;12.15;;;6.80;;
47669;SDS011;33408;52.062;11.722;2023-04-15T05:25:52;9.55;;;6.80;;
47669;SDS011;33408;52.062;11.722;2023-04-15T05:28:18;9.55;;;6.80;;
47669;SDS011;33408;52.062;11.722;2023-04-15T05:30:45;10.13;;;6.95;;
47669;SDS011;33408;52.062;11.722;2023-04-15T05:33:12;10.02;;;6.80;;
47669;SDS011;33408;52.062;11.722;2023-04-15T05:35:39;9.82;;;6.75;;
47669;SDS011;33408;52.062;11.722;2023-04-15T05:38:05;11.25;;;7.53;;
47669;SDS011;33408;52.062;11.722;2023-04-15T05:40:32;10.13;;;6.78;;
47669;SDS011;33408;52.062;11.722;2023-04-15T05:43:00;10.65;;;7.72;;
47669;SDS011;33408;52.062;11.722;2023-04-15T05:45:26;10.73;;;6.90;;
47669;SDS011;33408;52.062;11.722;2023-04-15T05:47:53;11.10;;;7.57;;
47669;SDS011;33408;52.062;11.722;2023-04-15T05:50:20;9.85;;;6.70;;
47669;SDS011;33408;52.062;11.722;2023-04-15T05:52:46;10.57;;;6.88;;
47669;SDS011;33408;52.062;11.722;2023-04-15T05:55:13;10.98;;;7.32;;
47669;SDS011;33408;52.062;11.722;2023-04-15T05:57:40;11.25;;;7.28;;
47669;SDS011;33408;52.062;11.722;2023-04-15T06:00:08;11.85;;;7.53;;
47669;SDS011;33408;52.062;11.722;2023-04-15T06:02:36;10.77;;;6.85;;
47669;SDS011;33408;52.062;11.722;2023-04-15T06:05:02;10.32;;;6.60;;
47669;SDS011;33408;52.062;11.722;2023-04-15T06:07:33;12.23;;;7.60;;
47669;SDS011;33408;52.062;11.722;2023-04-15T06:10:00;11.23;;;7.30;;
47669;SDS011;33408;52.062;11.722;2023-04-15T06:12:27;11.85;;;7.45;;
47669;SDS011;33408;52.062;11.722;2023-04-15T06:14:53;10.65;;;7.22;;
47669;SDS011;33408;52.062;11.722;2023-04-15T06:17:21;12.15;;;7.95;;
47669;SDS011;33408;52.062;11.722;2023-04-15T06:19:48;11.05;;;7.60;;
47669;SDS011;33408;52.062;11.722;2023-04-15T06:22:19;12.38;;;8.15;;
47669;SDS011;33408;52.062;11.722;2023-04-15T06:24:46;11.63;;;7.75;;
47669;SDS011;33408;52.062;11.722;2023-04-15T06:27:13;12.23;;;8.57;;
47669;SDS011;33408;52.062;11.722;2023-04-15T06:29:39;12.93;;;9.10;;
47669;SDS011;33408;52.062;11.722;2023-04-15T06:32:06;17.00;;;13.30;;
47669;SDS011;33408;52.062;11.722;2023-04-15T06:34:34;16.63;;;13.02;;
47669;SDS011;33408;52.062;11.722;2023-04-15T06:37:00;16.45;;;10.80;;
47669;SDS011;33408;52.062;11.722;2023-04-15T06:39:27;14.68;;;9.90;;
47669;SDS011;33408;52.062;11.722;2023-04-15T06:41:53;12.55;;;8.77;;
47669;SDS011;33408;52.062;11.722;2023-04-15T06:44:20;15.00;;;9.65;;
47669;SDS011;33408;52.062;11.722;2023-04-15T06:46:47;15.13;;;10.40;;
47669;SDS011;33408;52.062;11.722;2023-04-15T06:49:13;15.30;;;9.57;;
47669;SDS011;33408;52.062;11.722;2023-04-15T06:51:42;16.00;;;10.50;;
47669;SDS011;33408;52.062;11.722;2023-04-15T06:54:08;17.50;;;10.38;;
47669;SDS011;33408;52.062;11.722;2023-04-15T06:56:35;13.65;;;10.30;;
47669;SDS011;33408;52.062;11.722;2023-04-15T06:59:02;13.95;;;10.20;;
47669;SDS011;33408;52.062;11.722;2023-04-15T07:01:28;19.83;;;11.13;;
47669;SDS011;33408;52.062;11.722;2023-04-15T07:03:55;16.35;;;10.45;;
47669;SDS011;33408;52.062;11.722;2023-04-15T07:06:21;15.57;;;10.95;;
47669;SDS011;33408;52.062;11.722;2023-04-15T07:08:50;15.80;;;10.65;;
47669;SDS011;33408;52.062;11.722;2023-04-15T07:11:16;19.02;;;12.38;;
47669;SDS011;33408;52.062;11.722;2023-04-15T07:13:43;17.45;;;11.65;;
47669;SDS011;33408;52.062;11.722;2023-04-15T07:16:10;19.13;;;12.25;;
47669;SDS011;33408;52.062;11.722;2023-04-15T07:18:37;17.88;;;13.20;;
47669;SDS011;33408;52.062;11.722;2023-04-15T07:21:03;19.65;;;13.68;;
47669;SDS011;33408;52.062;11.722;2023-04-15T07:23:30;20.02;;;14.93;;
47669;SDS011;33408;52.062;11.722;2023-04-15T07:25:58;20.15;;;14.68;;
47669;SDS011;33408;52.062;11.722;2023-04-15T07:28:25;23.30;;;15.50;;
47669;SDS011;33408;52.062;11.722;2023-04-15T07:30:52;22.88;;;16.52;;
47669;SDS011;33408;52.062;11.722;2023-04-15T07:33:18;26.05;;;18.42;;
47669;SDS011;33408;52.062;11.722;2023-04-15T07:35:45;29.98;;;19.17;;
47669;SDS011;33408;52.062;11.722;2023-04-15T07:38:12;31.20;;;20.90;;
47669;SDS011;33408;52.062;11.722;2023-04-15T07:40:38;30.58;;;21.00;;
47669;SDS011;33408;52.062;11.722;2023-04-15T07:43:07;34.80;;;23.00;;
47669;SDS011;33408;52.062;11.722;2023-04-15T07:45:34;34.63;;;24.08;;
47669;SDS011;33408;52.062;11.722;2023-04-15T07:48:01;40.80;;;27.25;;
47669;SDS011;33408;52.062;11.722;2023-04-15T07:50:28;45.63;;;31.88;;
47669;SDS011;33408;52.062;11.722;2023-04-15T07:52:54;63.92;;;39.45;;
47669;SDS011;33408;52.062;11.722;2023-04-15T07:55:21;74.45;;;43.75;;
47669;SDS011;33408;52.062;11.722;2023-04-15T07:57:48;60.80;;;41.17;;
47669;SDS011;33408;52.062;11.722;2023-04-15T08:00:17;78.97;;;47.45;;
47669;SDS011;33408;52.062;11.722;2023-04-15T08:02:44;66.00;;;43.13;;
47669;SDS011;33408;52.062;11.722;2023-04-15T08:05:11;58.55;;;41.55;;
47669;SDS011;33408;52.062;11.722;2023-04-15T08:07:39;58.42;;;38.92;;
47669;SDS011;33408;52.062;11.722;2023-04-15T08:10:06;56.80;;;41.00;;
47669;SDS011;33408;52.062;11.722;2023-04-15T08:12:33;60.40;;;39.72;;
47669;SDS011;33408;52.062;11.722;2023-04-15T08:15:00;58.20;;;39.20;;
47669;SDS011;33408;52.062;11.722;2023-04-15T08:17:28;64.03;;;40.17;;
47669;SDS011;33408;52.062;11.722;2023-04-15T08:19:55;59.97;;;40.85;;
47669;SDS011;33408;52.062;11.722;2023-04-15T08:22:21;60.67;;;41.50;;
47669;SDS011;33408;52.062;11.722;2023-04-15T08:24:48;58.70;;;40.83;;
47669;SDS011;33408;52.062;11.722;2023-04-15T08:27:15;62.58;;;40.67;;
47669;SDS011;33408;52.062;11.722;2023-04-15T08:29:42;60.28;;;40.88;;
47669;SDS011;33408;52.062;11.722;2023-04-15T08:32:09;67.22;;;44.42;;
47669;SDS011;33408;52.062;11.722;2023-04-15T08:34:37;59.30;;;43.13;;
47669;SDS011;33408;52.062;11.722;2023-04-15T08:37:04;66.82;;;45.85;;
47669;SDS011;33408;52.062;11.722;2023-04-15T08:39:31;69.15;;;45.80;;
47669;SDS011;33408;52.062;11.722;2023-04-15T08:41:59;66.03;;;45.38;;
47669;SDS011;33408;52.062;11.722;2023-04-15T08:44:27;64.47;;;43.42;;
47669;SDS011;33408;52.062;11.722;2023-04-15T08:46:55;66.25;;;44.75;;
47669;SDS011;33408;52.062;11.722;2023-04-15T08:49:25;66.03;;;47.03;;
47669;SDS011;33408;52.062;11.722;2023-04-15T08:51:54;66.75;;;46.08;;
47669;SDS011;33408;52.062;11.722;2023-04-15T08:54:23;66.85;;;43.38;;
47669;SDS011;33408;52.062;11.722;2023-04-15T08:56:50;59.38;;;42.80;;
47669;SDS011;33408;52.062;11.722;2023-04-15T08:59:18;57.65;;;43.97;;
47669;SDS011;33408;52.062;11.722;2023-04-15T09:01:45;67.28;;;46.97;;
47669;SDS011;33408;52.062;11.722;2023-04-15T09:04:12;60.20;;;44.35;;
47669;SDS011;33408;52.062;11.722;2023-04-15T09:06:39;54.85;;;43.25;;
47669;SDS011;33408;52.062;11.722;2023-04-15T09:09:08;61.00;;;43.17;;
47669;SDS011;33408;52.062;11.722;2023-04-15T09:11:35;54.28;;;41.78;;
47669;SDS011;33408;52.062;11.722;2023-04-15T09:14:01;56.50;;;42.83;;
47669;SDS011;33408;52.062;11.722;2023-04-15T09:16:28;61.75;;;44.00;;
47669;SDS011;33408;52.062;11.722;2023-04-15T09:18:55;55.17;;;41.83;;
47669;SDS011;33408;52.062;11.722;2023-04-15T09:21:22;57.65;;;43.35;;
47669;SDS011;33408;52.062;11.722;2023-04-15T09:23:53;59.60;;;42.70;;
47669;SDS011;33408;52.062;11.722;2023-04-15T09:26:30;54.00;;;40.55;;
47669;SDS011;33408;52.062;11.722;2023-04-15T09:29:01;51.83;;;42.05;;
47669;SDS011;33408;52.062;11.722;2023-04-15T09:31:29;55.58;;;46.05;;
47669;SDS011;33408;52.062;11.722;2023-04-15T09:33:57;63.53;;;46.95;;
47669;SDS011;33408;52.062;11.722;2023-04-15T09:36:23;57.80;;;42.40;;
47669;SDS011;33408;52.062;11.722;2023-04-15T09:38:54;51.03;;;39.72;;
47669;SDS011;33408;52.062;11.722;2023-04-15T09:41:21;54.88;;;45.35;;
47669;SDS011;33408;52.062;11.722;2023-04-15T09:43:49;47.70;;;40.05;;
47669;SDS011;33408;52.062;11.722;2023-04-15T09:46:16;48.60;;;39.28;;
47669;SDS011;33408;52.062;11.722;2023-04-15T09:48:43;52.35;;;39.28;;
47669;SDS011;33408;52.062;11.722;2023-04-15T09:51:10;48.42;;;38.92;;
47669;SDS011;33408;52.062;11.722;2023-04-15T09:53:36;51.08;;;39.95;;
47669;SDS011;33408;52.062;11.722;2023-04-15T09:56:03;47.05;;;37.10;;
47669;SDS011;33408;52.062;11.722;2023-04-15T09:58:32;48.88;;;36.40;;
47669;SDS011;33408;52.062;11.722;2023-04-15T10:01:03;44.97;;;38.00;;
47669;SDS011;33408;52.062;11.722;2023-04-15T10:03:34;47.90;;;38.10;;
47669;SDS011;33408;52.062;11.722;2023-04-15T10:06:01;42.05;;;34.83;;
47669;SDS011;33408;52.062;11.722;2023-04-15T10:08:30;41.72;;;35.40;;
47669;SDS011;33408;52.062;11.722;2023-04-15T10:10:58;42.35;;;37.08;;
47669;SDS011;33408;52.062;11.722;2023-04-15T10:13:28;47.67;;;38.08;;
47669;SDS011;33408;52.062;11.722;2023-04-15T10:15:57;41.83;;;34.95;;
47669;SDS011;33408;52.062;11.722;2023-04-15T10:18:28;45.17;;;37.80;;
47669;SDS011;33408;52.062;11.722;2023-04-15T10:20:59;39.65;;;33.60;;
47669;SDS011;33408;52.062;11.722;2023-04-15T10:23:26;37.42;;;32.88;;
47669;SDS011;33408;52.062;11.722;2023-04-15T10:25:54;38.45;;;33.80;;
47669;SDS011;33408;52.062;11.722;2023-04-15T10:28:22;39.92;;;33.10;;
47669;SDS011;33408;52.062;11.722;2023-04-15T10:30:49;57.03;;;50.92;;
47669;SDS011;33408;52.062;11.722;2023-04-15T10:33:18;36.30;;;32.30;;
47669;SDS011;33408;52.062;11.722;2023-04-15T10:35:48;40.90;;;34.70;;
47669;SDS011;33408;52.062;11.722;2023-04-15T10:38:30;36.67;;;32.53;;
47669;SDS011;33408;52.062;11.722;2023-04-15T10:41:03;41.65;;;33.00;;
47669;SDS011;33408;52.062;11.722;2023-04-15T10:43:37;36.08;;;32.22;;
47669;SDS011;33408;52.062;11.722;2023-04-15T10:46:04;35.90;;;31.88;;
47669;SDS011;33408;52.062;11.722;2023-04-15T10:48:31;35.10;;;31.30;;
47669;SDS011;33408;52.062;11.722;2023-04-15T10:51:00;33.90;;;30.05;;
47669;SDS011;33408;52.062;11.722;2023-04-15T10:53:27;35.15;;;30.58;;
47669;SDS011;33408;52.062;11.722;2023-04-15T10:55:56;47.55;;;31.60;;
47669;SDS011;33408;52.062;11.722;2023-04-15T10:58:23;35.00;;;30.58;;
47669;SDS011;33408;52.062;11.722;2023-04-15T11:00:50;35.20;;;30.30;;
47669;SDS011;33408;52.062;11.722;2023-04-15T11:03:21;36.53;;;32.10;;
47669;SDS011;33408;52.062;11.722;2023-04-15T11:06:04;41.22;;;36.50;;
47669;SDS011;33408;52.062;11.722;2023-04-15T11:11:22;33.13;;;29.52;;
47669;SDS011;33408;52.062;11.722;2023-04-15T11:13:49;33.70;;;30.00;;
47669;SDS011;33408;52.062;11.722;2023-04-15T11:16:17;31.65;;;28.10;;
47669;SDS011;33408;52.062;11.722;2023-04-15T11:18:52;37.72;;;29.98;;
47669;SDS011;33408;52.062;11.722;2023-04-15T11:21:20;36.92;;;30.48;;
47669;SDS011;33408;52.062;11.722;2023-04-15T11:23:50;36.17;;;30.90;;
47669;SDS011;33408;52.062;11.722;2023-04-15T11:26:17;36.63;;;32.75;;
47669;SDS011;33408;52.062;11.722;2023-04-15T11:28:44;36.03;;;32.15;;
47669;SDS011;33408;52.062;11.722;2023-04-15T11:31:12;38.80;;;33.00;;
47669;SDS011;33408;52.062;11.722;2023-04-15T11:33:46;35.80;;;31.00;;
47669;SDS011;33408;52.062;11.722;2023-04-15T11:36:20;40.53;;;32.28;;
47669;SDS011;33408;52.062;11.722;2023-04-15T11:38:50;34.78;;;29.75;;
47669;SDS011;33408;52.062;11.722;2023-04-15T11:41:19;37.85;;;33.42;;
47669;SDS011;33408;52.062;11.722;2023-04-15T11:43:46;35.97;;;32.28;;
47669;SDS011;33408;52.062;11.722;2023-04-15T11:46:12;37.45;;;32.08;;
47669;SDS011;33408;52.062;11.722;2023-04-15T11:48:41;36.92;;;33.03;;
47669;SDS011;33408;52.062;11.722;2023-04-15T11:51:09;38.35;;;34.17;;
47669;SDS011;33408;52.062;11.722;2023-04-15T11:53:38;38.15;;;33.90;;
47669;SDS011;33408;52.062;11.722;2023-04-15T11:56:06;37.97;;;34.03;;
47669;SDS011;33408;52.062;11.722;2023-04-15T11:58:35;38.00;;;32.20;;
47669;SDS011;33408;52.062;11.722;2023-04-15T12:01:03;40.83;;;36.47;;
47669;SDS011;33408;52.062;11.722;2023-04-15T12:03:35;40.75;;;35.53;;
47669;SDS011;33408;52.062;11.722;2023-04-15T12:11:37;36.97;;;33.20;;
47669;SDS011;33408;52.062;11.722;2023-04-15T12:14:06;34.83;;;31.02;;
47669;SDS011;33408;52.062;11.722;2023-04-15T12:16:36;33.90;;;30.50;;
47669;SDS011;33408;52.062;11.722;2023-04-15T12:19:05;29.95;;;26.85;;
47669;SDS011;33408;52.062;11.722;2023-04-15T12:21:34;31.85;;;28.50;;
47669;SDS011;33408;52.062;11.722;2023-04-15T12:24:03;36.17;;;28.42;;
47669;SDS011;33408;52.062;11.722;2023-04-15T12:26:35;29.33;;;25.85;;
47669;SDS011;33408;52.062;11.722;2023-04-15T12:29:04;28.95;;;25.85;;
47669;SDS011;33408;52.062;11.722;2023-04-15T12:31:32;29.10;;;25.95;;
47669;SDS011;33408;52.062;11.722;2023-04-15T12:34:00;28.23;;;25.25;;
47669;SDS011;33408;52.062;11.722;2023-04-15T12:36:27;26.10;;;23.38;;
47669;SDS011;33408;52.062;11.722;2023-04-15T12:39:00;28.13;;;23.88;;
47669;SDS011;33408;52.062;11.722;2023-04-15T12:41:26;27.30;;;24.40;;
47669;SDS011;33408;52.062;11.722;2023-04-15T12:43:55;30.25;;;26.77;;
47669;SDS011;33408;52.062;11.722;2023-04-15T12:46:21;28.85;;;25.75;;
47669;SDS011;33408;52.062;11.722;2023-04-15T12:48:48;29.10;;;25.95;;
47669;SDS011;33408;52.062;11.722;2023-04-15T12:51:15;32.65;;;29.15;;
47669;SDS011;33408;52.062;11.722;2023-04-15T12:53:41;29.50;;;26.50;;
47669;SDS011;33408;52.062;11.722;2023-04-15T12:56:11;31.52;;;28.23;;
47669;SDS011;33408;52.062;11.722;2023-04-15T12:58:38;31.48;;;28.15;;
47669;SDS011;33408;52.062;11.722;2023-04-15T13:01:06;29.27;;;26.13;;
47669;SDS011;33408;52.062;11.722;2023-04-15T13:03:33;29.13;;;26.08;;
47669;SDS011;33408;52.062;11.722;2023-04-15T13:05:59;47.47;;;26.95;;
47669;SDS011;33408;52.062;11.722;2023-04-15T13:08:28;28.75;;;25.45;;
47669;SDS011;33408;52.062;11.722;2023-04-15T13:10:57;29.13;;;26.10;;
47669;SDS011;33408;52.062;11.722;2023-04-15T13:13:24;29.45;;;26.45;;
47669;SDS011;33408;52.062;11.722;2023-04-15T13:15:51;27.80;;;24.80;;
47669;SDS011;33408;52.062;11.722;2023-04-15T13:18:19;27.35;;;24.35;;
47669;SDS011;33408;52.062;11.722;2023-04-15T13:20:47;28.58;;;25.42;;
47669;SDS011;33408;52.062;11.722;2023-04-15T13:23:15;27.58;;;24.48;;
47669;SDS011;33408;52.062;11.722;2023-04-15T13:25:42;28.20;;;25.02;;
47669;SDS011;33408;52.062;11.722;2023-04-15T13:28:09;28.60;;;25.30;;
47669;SDS011;33408;52.062;11.722;2023-04-15T13:30:36;26.83;;;24.00;;
47669;SDS011;33408;52.062;11.722;2023-04-15T13:33:03;30.85;;;25.25;;
47669;SDS011;33408;52.062;11.722;2023-04-15T13:35:32;27.25;;;23.92;;
47669;SDS011;33408;52.062;11.722;2023-04-15T13:37:59;28.75;;;25.33;;
47669;SDS011;33408;52.062;11.722;2023-04-15T13:40:25;29.48;;;26.38;;
47669;SDS011;33408;52.062;11.722;2023-04-15T13:42:52;30.92;;;27.17;;
47669;SDS011;33408;52.062;11.722;2023-04-15T13:45:18;29.40;;;26.25;;
47669;SDS011;33408;52.062;11.722;2023-04-15T13:47:48;25.70;;;22.50;;
47669;SDS011;33408;52.062;11.722;2023-04-15T13:50:14;26.58;;;23.67;;
47669;SDS011;33408;52.062;11.722;2023-04-15T13:52:42;25.83;;;23.13;;
47669;SDS011;33408;52.062;11.722;2023-04-15T13:55:09;26.70;;;23.80;;
47669;SDS011;33408;52.062;11.722;2023-04-15T13:57:38;30.65;;;27.30;;
47669;SDS011;33408;52.062;11.722;2023-04-15T14:00:07;30.23;;;26.98;;
47669;SDS011;33408;52.062;11.722;2023-04-15T14:02:38;30.25;;;26.23;;
47669;SDS011;33408;52.062;11.722;2023-04-15T14:05:05;32.95;;;28.60;;
47669;SDS011;33408;52.062;11.722;2023-04-15T14:07:32;29.77;;;26.58;;
47669;SDS011;33408;52.062;11.722;2023-04-15T14:10:00;28.50;;;25.50;;
47669;SDS011;33408;52.062;11.722;2023-04-15T14:12:27;31.60;;;28.08;;
47669;SDS011;33408;52.062;11.722;2023-04-15T14:14:53;34.63;;;31.10;;
47669;SDS011;33408;52.062;11.722;2023-04-15T14:17:20;30.92;;;27.30;;
47669;SDS011;33408;52.062;11.722;2023-04-15T14:19:47;30.73;;;27.42;;
47669;SDS011;33408;52.062;11.722;2023-04-15T14:22:13;34.85;;;31.25;;
47669;SDS011;33408;52.062;11.722;2023-04-15T14:24:41;39.63;;;35.40;;
47669;SDS011;33408;52.062;11.722;2023-04-15T14:27:09;35.90;;;32.10;;